Time;durP1;ratioP1;P1;durP2;ratioP2;P2;SDS_P1;SDS_P2;PMS_P1;PMS_P2;Temp;Humidity;BMP_temperature;BMP_pressure;BME280_temperature;BME280_humidity;BME280_pressure;Samples;Min_cycle;Max_cycle;Signal;HPM_P1;HPM_P2
2023/09/19 00:02:22;;;;;;;;;;;15.30;99.90;;;;;;4973004;28;19933;-32
2023/09/19 00:04:49;;;;;;;;;;;15.30;99.90;;;;;;4956278;28;19981;-32
2023/09/19 00:07:17;;;;;;;;;;;15.20;99.90;;;;;;4971321;28;19930;-32
2023/09/19 00:09:44;;;;;;;;;;;15.20;99.90;;;;;;4972381;28;19937;-31
2023/09/19 00:12:13;;;;;;;;;;;15.10;99.90;;;;;;4971283;28;19926;-31
2023/09/19 00:14:40;;;;;;;;;;;15.10;99.90;;;;;;4972097;28;20290;-32
2023/09/19 00:17:08;;;;;;;;;;;15.10;99.90;;;;;;4970288;28;20375;-32
2023/09/19 00:19:36;;;;;;;;;;;15.00;99.90;;;;;;4973084;28;19930;-31
2023/09/19 00:22:03;;;;;;;;;;;15.00;99.90;;;;;;4937658;29;20287;-32
2023/09/19 00:24:30;;;;;;;;;;;15.00;99.90;;;;;;4970746;28;20279;-32
2023/09/19 00:26:58;;;;;;;;;;;14.90;99.90;;;;;;4973155;28;19982;-32
2023/09/19 00:29:28;;;;;;;;;;;14.90;99.90;;;;;;4972243;28;19930;-31
2023/09/19 00:31:55;;;;;;;;;;;14.80;99.90;;;;;;4971972;28;19930;-31
2023/09/19 00:34:22;;;;;;;;;;;14.80;99.90;;;;;;4971944;28;19925;-31
2023/09/19 00:36:52;;;;;;;;;;;14.80;99.90;;;;;;4971745;28;19976;-32
2023/09/19 00:39:20;;;;;;;;;;;14.70;99.90;;;;;;4972887;28;19930;-31
2023/09/19 00:41:47;;;;;;;;;;;14.70;99.90;;;;;;4971697;28;20548;-31
2023/09/19 00:44:15;;;;;;;;;;;14.60;99.90;;;;;;4971402;28;19930;-31
2023/09/19 00:46:42;;;;;;;;;;;14.60;99.90;;;;;;4972036;28;20294;-31
2023/09/19 00:49:09;;;;;;;;;;;14.60;99.90;;;;;;4955808;28;19926;-32
2023/09/19 00:51:36;;;;;;;;;;;14.50;99.90;;;;;;4973668;28;20366;-31
2023/09/19 00:54:06;;;;;;;;;;;14.50;99.90;;;;;;4970363;28;20389;-31
2023/09/19 00:56:33;;;;;;;;;;;14.50;99.90;;;;;;4961961;28;20016;-31
2023/09/19 00:58:59;;;;;;;;;;;14.50;99.90;;;;;;4970802;28;19933;-32
2023/09/19 01:01:26;;;;;;;;;;;14.50;99.90;;;;;;4970844;28;19930;-32
2023/09/19 01:03:53;;;;;;;;;;;14.40;99.90;;;;;;4971707;28;20298;-32
2023/09/19 01:06:19;;;;;;;;;;;14.40;99.90;;;;;;4972921;28;20299;-31
2023/09/19 01:08:46;;;;;;;;;;;14.40;99.90;;;;;;4953165;28;20342;-32
2023/09/19 01:11:16;;;;;;;;;;;14.40;99.90;;;;;;4972526;28;19973;-32
2023/09/19 01:13:47;;;;;;;;;;;14.30;99.90;;;;;;4954330;28;19926;-34
2023/09/19 01:16:16;;;;;;;;;;;14.40;99.90;;;;;;4972305;28;19934;-32
2023/09/19 01:18:44;;;;;;;;;;;14.30;99.90;;;;;;4958262;28;20293;-32
2023/09/19 01:21:12;;;;;;;;;;;14.30;99.90;;;;;;4976513;28;19936;-33
2023/09/19 01:23:44;;;;;;;;;;;14.30;99.90;;;;;;4975517;28;19974;-33
2023/09/19 01:26:22;;;;;;;;;;;14.20;99.90;;;;;;4975231;28;19934;-31
2023/09/19 01:28:58;;;;;;;;;;;14.20;99.90;;;;;;4973962;28;19969;-32
2023/09/19 01:31:26;;;;;;;;;;;14.20;99.90;;;;;;4953592;28;19933;-32
2023/09/19 01:34:00;;;;;;;;;;;14.20;99.90;;;;;;4975057;28;20266;-32
2023/09/19 01:36:27;;;;;;;;;;;14.20;99.90;;;;;;4975426;28;20013;-31
2023/09/19 01:38:54;;;;;;;;;;;14.10;99.90;;;;;;4974090;28;19926;-32
2023/09/19 01:41:22;;;;;;;;;;;14.10;99.90;;;;;;4976645;28;19926;-32
2023/09/19 01:43:50;;;;;;;;;;;14.10;99.90;;;;;;4975555;28;19934;-31
2023/09/19 01:46:17;;;;;;;;;;;14.00;99.90;;;;;;4974639;28;19926;-31
2023/09/19 01:48:55;;;;;;;;;;;14.00;99.90;;;;;;4969148;28;19939;-33
2023/09/19 01:51:24;;;;;;;;;;;14.00;99.90;;;;;;4971257;28;19952;-32
2023/09/19 01:53:52;;;;;;;;;;;14.00;99.90;;;;;;4955957;28;20295;-32
2023/09/19 01:56:22;;;;;;;;;;;14.00;99.90;;;;;;4959109;28;20442;-32
2023/09/19 01:58:49;;;;;;;;;;;13.90;99.90;;;;;;4955928;28;20389;-31
2023/09/19 02:01:17;;;;;;;;;;;13.90;99.90;;;;;;4955975;28;20331;-32
2023/09/19 02:03:45;;;;;;;;;;;13.90;99.90;;;;;;4955212;28;19927;-32
2023/09/19 02:06:15;;;;;;;;;;;13.90;99.90;;;;;;4954053;28;19931;-34
2023/09/19 02:08:42;;;;;;;;;;;13.80;99.90;;;;;;4947745;28;20355;-33
2023/09/19 02:11:08;;;;;;;;;;;13.80;99.90;;;;;;4971325;28;20457;-32
2023/09/19 02:13:35;;;;;;;;;;;13.70;99.90;;;;;;4969946;28;20387;-31
2023/09/19 02:16:04;;;;;;;;;;;13.70;99.90;;;;;;4970166;28;20033;-32
2023/09/19 02:18:30;;;;;;;;;;;13.70;99.90;;;;;;4957101;29;19926;-31
2023/09/19 02:20:58;;;;;;;;;;;13.70;99.90;;;;;;4969632;28;19931;-32
2023/09/19 02:23:25;;;;;;;;;;;13.70;99.90;;;;;;4953553;28;20413;-31
2023/09/19 02:25:58;;;;;;;;;;;13.70;99.90;;;;;;4952339;28;19927;-31
2023/09/19 02:28:25;;;;;;;;;;;13.70;99.90;;;;;;4954901;28;19926;-31
2023/09/19 02:30:52;;;;;;;;;;;13.60;99.90;;;;;;4955817;28;19927;-31
2023/09/19 02:33:18;;;;;;;;;;;13.60;99.90;;;;;;4955456;29;19934;-31
2023/09/19 02:35:46;;;;;;;;;;;13.60;99.90;;;;;;4955116;28;20276;-31
2023/09/19 02:38:14;;;;;;;;;;;13.60;99.90;;;;;;4954498;28;20403;-30
2023/09/19 02:40:42;;;;;;;;;;;13.50;99.90;;;;;;4971673;28;19926;-32
2023/09/19 02:43:09;;;;;;;;;;;13.50;99.90;;;;;;4955395;28;20410;-31
2023/09/19 02:45:36;;;;;;;;;;;13.60;99.90;;;;;;4954985;29;20017;-31
2023/09/19 02:48:03;;;;;;;;;;;13.50;99.90;;;;;;4954465;29;19927;-32
2023/09/19 02:50:30;;;;;;;;;;;13.50;99.90;;;;;;4969921;28;20415;-32
2023/09/19 02:52:57;;;;;;;;;;;13.50;99.90;;;;;;4955883;29;19927;-34
2023/09/19 02:55:25;;;;;;;;;;;13.50;99.90;;;;;;4961330;28;19978;-32
2023/09/19 02:57:52;;;;;;;;;;;13.50;99.90;;;;;;4965143;28;19989;-32
2023/09/19 03:00:21;;;;;;;;;;;13.50;99.90;;;;;;4953917;28;19934;-32
2023/09/19 03:02:48;;;;;;;;;;;13.50;99.90;;;;;;4954457;28;19974;-33
2023/09/19 03:05:15;;;;;;;;;;;13.40;99.90;;;;;;4969595;28;20456;-31
2023/09/19 03:07:42;;;;;;;;;;;13.40;99.90;;;;;;4955262;29;19927;-32
2023/09/19 03:10:09;;;;;;;;;;;13.50;99.90;;;;;;4970247;28;19936;-32
2023/09/19 03:12:40;;;;;;;;;;;13.50;99.90;;;;;;4953668;28;19926;-32
2023/09/19 03:15:08;;;;;;;;;;;13.40;99.90;;;;;;4969573;28;19938;-33
2023/09/19 03:17:35;;;;;;;;;;;13.40;99.90;;;;;;4970093;28;19972;-31
2023/09/19 03:20:01;;;;;;;;;;;13.40;99.90;;;;;;4954647;28;19962;-33
2023/09/19 03:22:28;;;;;;;;;;;13.40;99.90;;;;;;4953778;29;19926;-32
2023/09/19 03:24:55;;;;;;;;;;;13.50;99.90;;;;;;4953466;28;19927;-32
2023/09/19 03:27:20;;;;;;;;;;;13.40;99.90;;;;;;4953787;29;20359;-32
2023/09/19 03:29:48;;;;;;;;;;;13.40;99.90;;;;;;4941380;29;20012;-32
2023/09/19 03:32:15;;;;;;;;;;;13.40;99.90;;;;;;4960104;28;19926;-34
2023/09/19 03:34:43;;;;;;;;;;;13.40;99.90;;;;;;4953324;28;19930;-31
2023/09/19 03:37:09;;;;;;;;;;;13.40;99.90;;;;;;4950792;28;19926;-32
2023/09/19 03:39:36;;;;;;;;;;;13.30;99.90;;;;;;4956594;28;20391;-32
2023/09/19 03:42:03;;;;;;;;;;;13.40;99.90;;;;;;4950230;29;19930;-31
2023/09/19 03:44:30;;;;;;;;;;;13.40;99.90;;;;;;4950197;28;20383;-33
2023/09/19 03:46:58;;;;;;;;;;;13.40;99.90;;;;;;4968010;28;19990;-33
2023/09/19 03:49:25;;;;;;;;;;;13.40;99.90;;;;;;4968913;28;19926;-31
2023/09/19 03:51:51;;;;;;;;;;;13.40;99.90;;;;;;4969907;28;20433;-32
2023/09/19 03:54:19;;;;;;;;;;;13.40;99.90;;;;;;4969111;28;20434;-32
2023/09/19 03:56:46;;;;;;;;;;;13.40;99.90;;;;;;4968319;28;20005;-34
2023/09/19 03:59:13;;;;;;;;;;;13.40;99.90;;;;;;4969009;28;19926;-31
2023/09/19 04:01:41;;;;;;;;;;;13.40;99.90;;;;;;4968906;28;19934;-31
2023/09/19 04:04:09;;;;;;;;;;;13.40;99.90;;;;;;4953189;28;20367;-31
2023/09/19 04:06:36;;;;;;;;;;;13.40;99.90;;;;;;4947961;29;19926;-32
2023/09/19 04:09:03;;;;;;;;;;;13.40;99.90;;;;;;4950366;29;20326;-33
2023/09/19 04:11:30;;;;;;;;;;;13.40;99.90;;;;;;4952542;28;19931;-31
2023/09/19 04:13:56;;;;;;;;;;;13.40;99.90;;;;;;4953232;28;19926;-32
2023/09/19 04:16:23;;;;;;;;;;;13.40;99.90;;;;;;4952071;28;19926;-31
2023/09/19 04:18:50;;;;;;;;;;;13.40;99.90;;;;;;4954262;28;19927;-31
2023/09/19 04:21:19;;;;;;;;;;;13.40;99.90;;;;;;4969201;28;19981;-32
2023/09/19 04:23:45;;;;;;;;;;;13.40;99.90;;;;;;4954581;28;19932;-32
2023/09/19 04:26:12;;;;;;;;;;;13.40;99.90;;;;;;4967696;28;19993;-32
2023/09/19 04:28:40;;;;;;;;;;;13.50;99.90;;;;;;4957480;28;19930;-31
2023/09/19 04:31:08;;;;;;;;;;;13.50;99.90;;;;;;4960503;28;20276;-32
2023/09/19 04:33:35;;;;;;;;;;;13.50;99.90;;;;;;4952834;29;20032;-31
2023/09/19 04:36:03;;;;;;;;;;;13.60;99.90;;;;;;4953423;29;20383;-32
2023/09/19 04:38:31;;;;;;;;;;;13.60;99.90;;;;;;4953656;28;19937;-33
2023/09/19 04:40:58;;;;;;;;;;;13.60;99.90;;;;;;4950586;28;19931;-31
2023/09/19 04:43:25;;;;;;;;;;;13.60;99.90;;;;;;4952265;28;20002;-31
2023/09/19 04:45:55;;;;;;;;;;;13.70;99.90;;;;;;4945753;28;20010;-32
2023/09/19 04:48:23;;;;;;;;;;;13.70;99.90;;;;;;4965052;28;19933;-31
2023/09/19 04:50:50;;;;;;;;;;;13.70;99.90;;;;;;4972092;28;20326;-32
2023/09/19 04:53:17;;;;;;;;;;;13.70;99.90;;;;;;4971037;28;19936;-32
2023/09/19 04:55:46;;;;;;;;;;;13.70;99.90;;;;;;4968411;28;19926;-33
2023/09/19 04:58:12;;;;;;;;;;;13.70;99.90;;;;;;4970980;28;19930;-32
2023/09/19 05:00:39;;;;;;;;;;;13.80;99.90;;;;;;4969929;28;19930;-32
2023/09/19 05:03:06;;;;;;;;;;;13.80;99.90;;;;;;4972600;28;19926;-33
2023/09/19 05:05:34;;;;;;;;;;;13.80;99.90;;;;;;4975249;28;19934;-33
2023/09/19 05:08:05;;;;;;;;;;;13.80;99.90;;;;;;4953928;28;19926;-32
2023/09/19 05:10:31;;;;;;;;;;;13.80;99.90;;;;;;4948783;28;19930;-32
2023/09/19 05:13:00;;;;;;;;;;;13.80;99.90;;;;;;4970238;28;20381;-33
2023/09/19 05:15:27;;;;;;;;;;;13.80;99.90;;;;;;4958840;28;19934;-33
2023/09/19 05:17:55;;;;;;;;;;;13.80;99.90;;;;;;4967182;28;20462;-33
2023/09/19 05:20:29;;;;;;;;;;;13.80;99.90;;;;;;4972307;28;19980;-32
2023/09/19 05:23:01;;;;;;;;;;;13.80;99.90;;;;;;4966719;28;19934;-32
2023/09/19 05:25:29;;;;;;;;;;;13.80;99.90;;;;;;4967728;28;20453;-32
2023/09/19 05:27:57;;;;;;;;;;;13.70;99.90;;;;;;4970862;28;19926;-31
2023/09/19 05:30:27;;;;;;;;;;;13.80;99.90;;;;;;4965847;28;19927;-31
2023/09/19 05:32:53;;;;;;;;;;;13.80;99.90;;;;;;4960879;28;19926;-32
2023/09/19 05:35:21;;;;;;;;;;;13.80;99.90;;;;;;4953463;28;20343;-33
2023/09/19 05:37:50;;;;;;;;;;;13.70;99.90;;;;;;4968737;28;19930;-31
2023/09/19 05:40:17;;;;;;;;;;;13.70;99.90;;;;;;4966489;28;19926;-31
2023/09/19 05:42:44;;;;;;;;;;;13.70;99.90;;;;;;4965106;28;19926;-32
2023/09/19 05:45:12;;;;;;;;;;;13.70;99.90;;;;;;4963960;28;19941;-31
2023/09/19 05:47:45;;;;;;;;;;;13.70;99.90;;;;;;4967715;28;19926;-34
2023/09/19 05:50:12;;;;;;;;;;;13.70;99.90;;;;;;4967538;28;20371;-31
2023/09/19 05:52:38;;;;;;;;;;;13.70;99.90;;;;;;4967858;28;19984;-32
2023/09/19 05:55:07;;;;;;;;;;;13.60;99.90;;;;;;4970196;28;19930;-34
2023/09/19 05:57:34;;;;;;;;;;;13.60;99.90;;;;;;4970120;28;19954;-32
2023/09/19 06:00:00;;;;;;;;;;;13.60;99.90;;;;;;4966063;28;19982;-33
2023/09/19 06:02:28;;;;;;;;;;;13.50;99.90;;;;;;4967793;28;19930;-32
2023/09/19 06:04:56;;;;;;;;;;;13.60;99.90;;;;;;4972594;28;19934;-32
2023/09/19 06:07:27;;;;;;;;;;;13.60;99.90;;;;;;4974779;28;19974;-32
2023/09/19 06:09:54;;;;;;;;;;;13.60;99.90;;;;;;4971601;28;19949;-32
2023/09/19 06:12:21;;;;;;;;;;;13.50;99.90;;;;;;4974387;28;19930;-33
2023/09/19 06:14:49;;;;;;;;;;;13.50;99.90;;;;;;4974163;28;19926;-32
2023/09/19 06:17:17;;;;;;;;;;;13.60;99.90;;;;;;4975239;28;19933;-32
2023/09/19 06:19:46;;;;;;;;;;;13.60;99.90;;;;;;4973382;28;20025;-33
2023/09/19 06:22:14;;;;;;;;;;;13.60;99.90;;;;;;4974145;28;19926;-32
2023/09/19 06:24:40;;;;;;;;;;;13.60;99.90;;;;;;4959601;28;19938;-32
2023/09/19 06:27:08;;;;;;;;;;;13.60;99.90;;;;;;4955807;29;20462;-33
2023/09/19 06:29:37;;;;;;;;;;;13.60;99.90;;;;;;4967741;28;19926;-32
2023/09/19 06:32:04;;;;;;;;;;;13.70;99.90;;;;;;4966360;28;19926;-34
2023/09/19 06:34:30;;;;;;;;;;;13.70;99.90;;;;;;4956908;28;19981;-33
2023/09/19 06:36:58;;;;;;;;;;;13.70;99.90;;;;;;4956243;28;20009;-31
2023/09/19 06:39:26;;;;;;;;;;;13.70;99.90;;;;;;4955704;29;20363;-31
2023/09/19 06:41:54;;;;;;;;;;;13.60;99.90;;;;;;4962108;28;19926;-31
2023/09/19 06:44:21;;;;;;;;;;;13.60;99.90;;;;;;4973186;28;19941;-31
2023/09/19 06:46:49;;;;;;;;;;;13.60;99.90;;;;;;4973588;28;19933;-31
2023/09/19 06:49:16;;;;;;;;;;;13.60;99.90;;;;;;4974799;28;19985;-31
2023/09/19 06:51:43;;;;;;;;;;;13.60;99.90;;;;;;4972697;28;19933;-30
2023/09/19 06:54:10;;;;;;;;;;;13.60;99.90;;;;;;4974562;28;19926;-31
2023/09/19 06:56:38;;;;;;;;;;;13.60;99.90;;;;;;4973827;28;20274;-31
2023/09/19 06:59:06;;;;;;;;;;;13.60;99.90;;;;;;4973645;28;19926;-31
2023/09/19 07:01:33;;;;;;;;;;;13.70;99.90;;;;;;4973522;28;19953;-32
2023/09/19 07:04:00;;;;;;;;;;;13.80;99.90;;;;;;4972350;28;20370;-31
2023/09/19 07:06:27;;;;;;;;;;;13.80;99.90;;;;;;4974287;28;20374;-31
2023/09/19 07:08:54;;;;;;;;;;;13.90;99.90;;;;;;4973491;28;19969;-32
2023/09/19 07:11:21;;;;;;;;;;;14.10;99.90;;;;;;4973302;28;19930;-32
2023/09/19 07:13:49;;;;;;;;;;;14.10;99.90;;;;;;4972026;28;19977;-31
2023/09/19 07:16:27;;;;;;;;;;;14.20;99.90;;;;;;4973127;28;19996;-32
2023/09/19 07:18:53;;;;;;;;;;;14.30;99.90;;;;;;4973199;28;19926;-31
2023/09/19 07:21:20;;;;;;;;;;;14.30;99.90;;;;;;4974445;28;20058;-34
2023/09/19 07:23:50;;;;;;;;;;;14.30;99.90;;;;;;4972733;28;20394;-32
2023/09/19 07:26:17;;;;;;;;;;;14.30;99.90;;;;;;4973202;28;20188;-31
2023/09/19 07:28:43;;;;;;;;;;;14.30;99.90;;;;;;4973958;28;20397;-32
2023/09/19 07:31:14;;;;;;;;;;;14.40;99.90;;;;;;4972923;28;19934;-32
2023/09/19 07:33:41;;;;;;;;;;;14.40;99.90;;;;;;4972861;28;19930;-32
2023/09/19 07:36:10;;;;;;;;;;;14.40;99.90;;;;;;4973929;28;20384;-29
2023/09/19 07:38:37;;;;;;;;;;;14.40;99.90;;;;;;4973856;28;19930;-32
2023/09/19 07:41:05;;;;;;;;;;;14.40;99.90;;;;;;4972968;28;20466;-31
2023/09/19 07:43:31;;;;;;;;;;;14.40;99.90;;;;;;4972003;28;19930;-31
2023/09/19 07:46:00;;;;;;;;;;;14.40;99.90;;;;;;4972832;28;20043;-30
2023/09/19 07:48:28;;;;;;;;;;;14.40;99.90;;;;;;4972045;28;19926;-31
2023/09/19 07:50:55;;;;;;;;;;;14.40;99.90;;;;;;4973859;28;19926;-31
2023/09/19 07:53:22;;;;;;;;;;;14.40;99.90;;;;;;4971892;28;19960;-30
2023/09/19 07:55:48;;;;;;;;;;;14.40;99.90;;;;;;4971499;28;20575;-30
2023/09/19 07:58:15;;;;;;;;;;;14.50;99.90;;;;;;4973333;28;20374;-31
2023/09/19 08:00:42;;;;;;;;;;;14.50;99.90;;;;;;4972453;28;20367;-34
2023/09/19 08:03:14;;;;;;;;;;;14.50;99.90;;;;;;4971642;28;20430;-32
2023/09/19 08:05:43;;;;;;;;;;;14.50;99.90;;;;;;4970854;28;19933;-32
2023/09/19 08:08:10;;;;;;;;;;;14.60;99.90;;;;;;4971598;28;20290;-31
2023/09/19 08:10:39;;;;;;;;;;;14.60;99.90;;;;;;4972311;28;19933;-32
2023/09/19 08:13:07;;;;;;;;;;;14.60;99.90;;;;;;4972612;28;20326;-34
2023/09/19 08:15:34;;;;;;;;;;;14.60;99.90;;;;;;4970230;28;20306;-32
2023/09/19 08:18:01;;;;;;;;;;;14.70;99.90;;;;;;4971030;28;20390;-32
2023/09/19 08:20:28;;;;;;;;;;;14.70;99.90;;;;;;4971575;28;19926;-31
2023/09/19 08:22:56;;;;;;;;;;;14.80;99.90;;;;;;4970450;28;19927;-32
2023/09/19 08:25:23;;;;;;;;;;;15.00;99.90;;;;;;4970188;28;19926;-33
2023/09/19 08:27:50;;;;;;;;;;;15.10;99.90;;;;;;4972989;28;20309;-31
2023/09/19 08:30:17;;;;;;;;;;;15.20;99.90;;;;;;4969781;28;19933;-30
2023/09/19 08:32:46;;;;;;;;;;;15.30;99.90;;;;;;4971620;28;19977;-31
2023/09/19 08:35:12;;;;;;;;;;;15.30;99.90;;;;;;4958113;28;19933;-32
2023/09/19 08:37:39;;;;;;;;;;;15.40;99.90;;;;;;4961382;28;20406;-32
2023/09/19 08:40:09;;;;;;;;;;;15.50;99.90;;;;;;4975119;28;20345;-31
2023/09/19 08:42:48;;;;;;;;;;;15.60;99.90;;;;;;4955425;28;20354;-31
2023/09/19 08:45:15;;;;;;;;;;;15.70;99.90;;;;;;4971327;28;20386;-31
2023/09/19 08:47:47;;;;;;;;;;;15.80;99.90;;;;;;4970848;28;19937;-31
2023/09/19 08:50:16;;;;;;;;;;;15.90;99.90;;;;;;4971759;28;19926;-32
2023/09/19 08:52:42;;;;;;;;;;;16.00;99.90;;;;;;4971270;28;19926;-31
2023/09/19 08:55:12;;;;;;;;;;;16.10;99.90;;;;;;4971011;28;19973;-31
2023/09/19 08:57:41;;;;;;;;;;;16.10;99.90;;;;;;4971400;28;19926;-32
2023/09/19 09:00:09;;;;;;;;;;;16.20;99.90;;;;;;4970409;28;19926;-30
2023/09/19 09:02:37;;;;;;;;;;;16.30;99.90;;;;;;4971424;28;19926;-32
2023/09/19 09:05:05;;;;;;;;;;;16.30;99.90;;;;;;4970874;28;19969;-31
2023/09/19 09:07:34;;;;;;;;;;;16.40;99.90;;;;;;4970462;28;19930;-32
2023/09/19 09:10:01;;;;;;;;;;;16.50;99.90;;;;;;4970200;28;19964;-31
2023/09/19 09:12:29;;;;;;;;;;;16.60;99.90;;;;;;4971980;28;19969;-32
2023/09/19 09:14:57;;;;;;;;;;;16.70;99.90;;;;;;4954319;28;19934;-31
2023/09/19 09:17:24;;;;;;;;;;;16.90;99.90;;;;;;4969605;28;19926;-31
2023/09/19 09:19:52;;;;;;;;;;;17.00;99.90;;;;;;4971048;28;20148;-32
2023/09/19 09:22:21;;;;;;;;;;;17.10;99.90;;;;;;4970773;28;19950;-31
2023/09/19 09:24:53;;;;;;;;;;;17.30;99.90;;;;;;4971153;28;20381;-32
2023/09/19 09:27:20;;;;;;;;;;;17.40;99.90;;;;;;4968753;28;19926;-32
2023/09/19 09:29:49;;;;;;;;;;;17.40;99.90;;;;;;4972221;28;19927;-32
2023/09/19 09:32:22;;;;;;;;;;;17.50;99.90;;;;;;4970911;28;19933;-31
2023/09/19 09:34:49;;;;;;;;;;;17.50;99.90;;;;;;4953981;28;19927;-32
2023/09/19 09:37:16;;;;;;;;;;;17.50;99.90;;;;;;4963026;28;19933;-32
2023/09/19 09:39:50;;;;;;;;;;;17.60;99.90;;;;;;4976268;28;19927;-34
2023/09/19 09:42:19;;;;;;;;;;;17.70;99.90;;;;;;4974580;28;19926;-32
2023/09/19 09:44:47;;;;;;;;;;;17.80;99.90;;;;;;4974776;28;19926;-32
2023/09/19 09:47:28;;;;;;;;;;;17.80;99.90;;;;;;4973703;28;19925;-33
2023/09/19 09:50:06;;;;;;;;;;;17.80;99.90;;;;;;4973609;28;19926;-32
2023/09/19 09:52:37;;;;;;;;;;;17.90;99.90;;;;;;4990922;28;19933;-33
2023/09/19 09:55:05;;;;;;;;;;;18.00;99.90;;;;;;4994794;28;19926;-32
2023/09/19 09:57:33;;;;;;;;;;;18.10;99.90;;;;;;4978383;28;19980;-32
2023/09/19 10:00:16;;;;;;;;;;;18.10;99.90;;;;;;4974138;28;19927;-32
2023/09/19 10:02:45;;;;;;;;;;;18.20;99.90;;;;;;4972076;28;20396;-32
2023/09/19 10:05:20;;;;;;;;;;;18.30;99.90;;;;;;4980308;28;20422;-32
2023/09/19 10:07:49;;;;;;;;;;;18.40;99.90;;;;;;4968271;28;19980;-32
2023/09/19 10:10:21;;;;;;;;;;;18.40;99.90;;;;;;4973511;28;19926;-32
2023/09/19 10:12:48;;;;;;;;;;;18.50;99.90;;;;;;4975232;28;19961;-32
2023/09/19 10:15:17;;;;;;;;;;;18.50;99.90;;;;;;4971938;28;19980;-33
2023/09/19 10:17:45;;;;;;;;;;;18.50;99.90;;;;;;4949208;28;19927;-32
2023/09/19 10:20:33;;;;;;;;;;;18.50;99.90;;;;;;4952859;28;19941;-33
2023/09/19 10:23:09;;;;;;;;;;;18.50;99.90;;;;;;4953290;28;20021;-32
2023/09/19 10:25:37;;;;;;;;;;;18.60;99.90;;;;;;4971322;28;20294;-32
2023/09/19 10:28:06;;;;;;;;;;;18.60;99.90;;;;;;4954431;28;19926;-31
2023/09/19 10:30:34;;;;;;;;;;;18.60;99.90;;;;;;4955565;29;19933;-32
2023/09/19 10:33:03;;;;;;;;;;;18.60;99.90;;;;;;4961426;28;19942;-31
2023/09/19 10:35:30;;;;;;;;;;;18.70;99.90;;;;;;4971986;28;20101;-32
2023/09/19 10:37:58;;;;;;;;;;;18.70;99.90;;;;;;4974065;28;19926;-32
2023/09/19 10:40:30;;;;;;;;;;;18.70;99.90;;;;;;4972289;28;19941;-32
2023/09/19 10:43:00;;;;;;;;;;;18.70;99.90;;;;;;4974292;28;19926;-31
2023/09/19 10:45:26;;;;;;;;;;;18.70;99.90;;;;;;4974535;28;20010;-32
2023/09/19 10:47:56;;;;;;;;;;;18.90;99.90;;;;;;4972842;28;19933;-32
2023/09/19 10:50:23;;;;;;;;;;;18.90;99.90;;;;;;4973148;28;20346;-32
2023/09/19 10:52:50;;;;;;;;;;;19.00;99.90;;;;;;4972046;28;19926;-32
2023/09/19 10:55:17;;;;;;;;;;;19.00;99.90;;;;;;4970309;28;19926;-33
2023/09/19 10:57:46;;;;;;;;;;;19.10;99.90;;;;;;4974225;28;19933;-33
2023/09/19 11:00:23;;;;;;;;;;;19.20;99.90;;;;;;4954209;28;19930;-33
2023/09/19 11:03:09;;;;;;;;;;;19.20;99.90;;;;;;4955820;28;20064;-34
2023/09/19 11:05:40;;;;;;;;;;;19.30;99.90;;;;;;4974037;28;19926;-33
2023/09/19 11:08:07;;;;;;;;;;;19.30;99.90;;;;;;4972317;28;19930;-32
2023/09/19 11:10:46;;;;;;;;;;;19.20;99.90;;;;;;4971325;28;19926;-33
2023/09/19 11:13:26;;;;;;;;;;;19.20;99.90;;;;;;4976706;28;19926;-32
2023/09/19 11:16:14;;;;;;;;;;;19.20;99.90;;;;;;4993165;28;20282;-32
2023/09/19 11:18:53;;;;;;;;;;;19.20;99.90;;;;;;4988440;28;19990;-32
2023/09/19 11:21:41;;;;;;;;;;;19.20;99.90;;;;;;4972770;28;20029;-32
2023/09/19 11:24:31;;;;;;;;;;;19.30;99.90;;;;;;4973727;28;19926;-34
2023/09/19 11:27:10;;;;;;;;;;;19.30;99.90;;;;;;4973067;28;19926;-32
2023/09/19 11:29:37;;;;;;;;;;;19.40;99.90;;;;;;4973106;28;20359;-32
2023/09/19 11:32:05;;;;;;;;;;;19.50;99.90;;;;;;4973762;28;19930;-32
2023/09/19 11:34:37;;;;;;;;;;;19.50;99.90;;;;;;4971615;28;19930;-34
2023/09/19 11:37:04;;;;;;;;;;;19.50;99.90;;;;;;4970593;28;20382;-31
2023/09/19 11:39:32;;;;;;;;;;;19.40;99.90;;;;;;4972148;28;20024;-32
2023/09/19 11:42:00;;;;;;;;;;;19.40;99.90;;;;;;4972560;28;19949;-32
2023/09/19 11:44:34;;;;;;;;;;;19.40;99.90;;;;;;4972387;28;19981;-31
2023/09/19 11:47:03;;;;;;;;;;;19.30;99.90;;;;;;4972705;28;19926;-32
2023/09/19 11:49:31;;;;;;;;;;;19.20;99.90;;;;;;4972751;28;20294;-31
2023/09/19 11:52:01;;;;;;;;;;;19.20;99.90;;;;;;4972624;28;19926;-32
2023/09/19 11:54:31;;;;;;;;;;;19.20;99.90;;;;;;4973392;28;19926;-32
2023/09/19 11:56:59;;;;;;;;;;;19.20;99.90;;;;;;4971915;28;20002;-33
2023/09/19 11:59:28;;;;;;;;;;;19.30;99.90;;;;;;4971574;28;20761;-33
2023/09/19 12:01:57;;;;;;;;;;;19.30;99.90;;;;;;4972737;28;20443;-33
2023/09/19 12:04:37;;;;;;;;;;;19.20;99.90;;;;;;4973202;28;19982;-32
2023/09/19 12:07:05;;;;;;;;;;;19.20;99.90;;;;;;4972236;28;19934;-33
2023/09/19 12:09:32;;;;;;;;;;;19.10;99.90;;;;;;4971369;28;19932;-33
2023/09/19 12:12:00;;;;;;;;;;;19.10;99.90;;;;;;4971620;28;19930;-35
2023/09/19 12:14:27;;;;;;;;;;;19.10;99.90;;;;;;4970542;28;20005;-32
2023/09/19 12:16:58;;;;;;;;;;;19.10;99.90;;;;;;4970054;28;19927;-32
2023/09/19 12:19:25;;;;;;;;;;;19.00;99.90;;;;;;4971011;28;19998;-33
2023/09/19 12:21:56;;;;;;;;;;;19.00;99.90;;;;;;4951830;28;20058;-32
2023/09/19 12:24:26;;;;;;;;;;;19.00;99.90;;;;;;4953622;29;19930;-31
2023/09/19 12:26:53;;;;;;;;;;;18.90;99.90;;;;;;4952569;29;19988;-32
2023/09/19 12:29:21;;;;;;;;;;;18.90;99.90;;;;;;4950569;28;19934;-32
2023/09/19 12:31:50;;;;;;;;;;;18.80;99.90;;;;;;4970953;28;20418;-31
2023/09/19 12:34:19;;;;;;;;;;;18.80;99.90;;;;;;4969172;28;19934;-33
2023/09/19 12:36:46;;;;;;;;;;;18.80;99.90;;;;;;4970778;28;19930;-33
2023/09/19 12:39:13;;;;;;;;;;;18.80;99.90;;;;;;4965621;28;19993;-31
2023/09/19 12:41:40;;;;;;;;;;;18.70;99.90;;;;;;4969279;28;19926;-32
2023/09/19 12:44:09;;;;;;;;;;;18.70;99.90;;;;;;4969498;28;19934;-33
2023/09/19 12:46:37;;;;;;;;;;;18.70;99.90;;;;;;4951079;28;19973;-32
2023/09/19 12:49:19;;;;;;;;;;;18.70;99.90;;;;;;4954694;28;19980;-32
2023/09/19 12:51:46;;;;;;;;;;;18.70;99.90;;;;;;4972216;28;20390;-32
2023/09/19 12:54:14;;;;;;;;;;;18.70;99.90;;;;;;4969165;28;19930;-32
2023/09/19 12:56:44;;;;;;;;;;;18.70;99.90;;;;;;4976238;28;20391;-33
2023/09/19 12:59:13;;;;;;;;;;;18.70;99.90;;;;;;4973373;28;20353;-32
2023/09/19 13:01:45;;;;;;;;;;;18.70;99.90;;;;;;4953167;28;19930;-33
2023/09/19 13:04:18;;;;;;;;;;;18.70;99.90;;;;;;4937399;29;19981;-33
2023/09/19 13:06:45;;;;;;;;;;;18.70;99.90;;;;;;4954155;29;20382;-33
2023/09/19 13:09:14;;;;;;;;;;;18.70;99.90;;;;;;4939273;28;19976;-32
2023/09/19 13:11:43;;;;;;;;;;;18.70;99.90;;;;;;4953485;28;19932;-33
2023/09/19 13:14:17;;;;;;;;;;;18.70;99.90;;;;;;4975985;28;19926;-31
2023/09/19 13:16:55;;;;;;;;;;;18.70;99.90;;;;;;4968320;28;20346;-34
2023/09/19 13:19:35;;;;;;;;;;;18.70;99.90;;;;;;4971492;28;20346;-32
2023/09/19 13:22:02;;;;;;;;;;;18.70;99.90;;;;;;4973203;28;20093;-33
2023/09/19 13:24:30;;;;;;;;;;;18.70;99.90;;;;;;4975682;28;20025;-33
2023/09/19 13:26:57;;;;;;;;;;;18.70;99.90;;;;;;4975351;28;20378;-32
2023/09/19 13:29:23;;;;;;;;;;;18.70;99.90;;;;;;4974583;28;19930;-32
2023/09/19 13:31:50;;;;;;;;;;;18.60;99.90;;;;;;4975652;28;19926;-32
2023/09/19 13:34:18;;;;;;;;;;;18.60;99.90;;;;;;4969281;28;19985;-32
2023/09/19 13:36:48;;;;;;;;;;;18.60;99.90;;;;;;4973594;28;19953;-32
2023/09/19 13:39:15;;;;;;;;;;;18.60;99.90;;;;;;4972824;28;19926;-32
2023/09/19 13:41:42;;;;;;;;;;;18.60;99.90;;;;;;4975106;28;19926;-33
2023/09/19 13:44:10;;;;;;;;;;;18.60;99.90;;;;;;4954247;28;19932;-33
2023/09/19 13:46:37;;;;;;;;;;;18.60;99.90;;;;;;4974771;28;20342;-32
2023/09/19 13:49:04;;;;;;;;;;;18.60;99.90;;;;;;4973710;28;19934;-32
2023/09/19 13:51:32;;;;;;;;;;;18.50;99.90;;;;;;4974396;28;19984;-33
2023/09/19 13:53:59;;;;;;;;;;;18.50;99.90;;;;;;4975801;28;19933;-32
2023/09/19 13:56:27;;;;;;;;;;;18.60;99.90;;;;;;4974308;28;20028;-33
2023/09/19 13:58:54;;;;;;;;;;;18.50;99.90;;;;;;4973541;28;19927;-33
2023/09/19 14:01:21;;;;;;;;;;;18.50;99.90;;;;;;4960043;28;20379;-32
2023/09/19 14:03:49;;;;;;;;;;;18.50;99.90;;;;;;4971183;28;19941;-32
2023/09/19 14:06:16;;;;;;;;;;;18.50;99.90;;;;;;4968386;28;19926;-33
2023/09/19 14:08:44;;;;;;;;;;;18.60;99.90;;;;;;4971162;28;19989;-33
2023/09/19 14:11:11;;;;;;;;;;;18.60;99.90;;;;;;4973150;28;19926;-32
2023/09/19 14:13:37;;;;;;;;;;;18.70;99.90;;;;;;4956901;28;19933;-33
2023/09/19 14:16:05;;;;;;;;;;;18.80;99.90;;;;;;4971844;28;19930;-33
2023/09/19 14:18:31;;;;;;;;;;;18.80;99.90;;;;;;4955115;28;20017;-33
2023/09/19 14:20:58;;;;;;;;;;;18.90;99.90;;;;;;4971920;28;20379;-32
2023/09/19 14:23:26;;;;;;;;;;;18.90;99.90;;;;;;4967960;28;20346;-33
2023/09/19 14:25:54;;;;;;;;;;;18.90;99.90;;;;;;4958760;28;19926;-33